Time;durP1;ratioP1;P1;durP2;ratioP2;P2;SDS_P1;SDS_P2;PMS_P1;PMS_P2;Temp;Humidity;BMP_temperature;BMP_pressure;BME280_temperature;BME280_humidity;BME280_pressure;Samples;Min_cycle;Max_cycle;Signal;HPM_P1;HPM_P2
2023/10/11 00:00:37;;;;;;;24.27;18.63;;;;;;;12.43;100.00;99727.34;4901972;29;20044;-91
2023/10/11 00:03:14;;;;;;;25.60;20.33;;;;;;;12.39;100.00;99717.97;4901731;29;20064;-91
2023/10/11 00:05:42;;;;;;;24.42;19.00;;;;;;;12.44;100.00;99730.78;4901905;29;20028;-91
2023/10/11 00:08:13;;;;;;;24.00;19.75;;;;;;;12.44;100.00;99723.81;4901631;29;20412;-91
2023/10/11 00:10:45;;;;;;;30.02;20.50;;;;;;;12.48;100.00;99707.03;4901868;29;20035;-91
2023/10/11 00:13:11;;;;;;;26.52;19.85;;;;;;;12.44;100.00;99704.69;4901589;29;20384;-91
2023/10/11 00:15:38;;;;;;;25.33;18.25;;;;;;;12.46;100.00;99705.41;4901716;29;20447;-91
2023/10/11 00:18:03;;;;;;;26.10;19.13;;;;;;;12.45;100.00;99703.75;4901395;29;20055;-90
2023/10/11 00:20:34;;;;;;;23.60;19.20;;;;;;;12.42;100.00;99698.66;4901763;29;20380;-90
2023/10/11 00:22:59;;;;;;;29.33;20.20;;;;;;;12.43;100.00;99708.19;4901535;29;20024;-91
2023/10/11 00:25:25;;;;;;;28.02;20.13;;;;;;;12.46;100.00;99714.09;4901689;29;20035;-92
2023/10/11 00:27:58;;;;;;;21.60;18.00;;;;;;;12.49;100.00;99703.50;4901422;29;20476;-90
2023/10/11 00:30:30;;;;;;;28.27;20.17;;;;;;;12.43;100.00;99697.75;4901269;29;20028;-92
2023/10/11 00:32:58;;;;;;;25.70;19.67;;;;;;;12.38;100.00;99698.00;4901241;29;20054;-91
2023/10/11 00:35:27;;;;;;;25.13;19.58;;;;;;;12.54;100.00;99713.69;4898888;29;20036;-92
2023/10/11 00:37:53;;;;;;;25.98;18.88;;;;;;;12.58;100.00;99715.22;4901229;29;20031;-91
2023/10/11 00:40:27;;;;;;;25.08;19.52;;;;;;;12.54;100.00;99718.91;4917282;29;20028;-91
2023/10/11 00:42:56;;;;;;;24.58;19.05;;;;;;;12.55;100.00;99715.38;4900817;29;20032;-91
2023/10/11 00:45:23;;;;;;;26.52;19.42;;;;;;;12.56;100.00;99711.84;4901393;29;20028;-91
2023/10/11 00:47:59;;;;;;;25.75;19.55;;;;;;;12.53;100.00;99706.78;4885648;29;20615;-92
2023/10/11 00:50:44;;;;;;;25.30;19.17;;;;;;;12.47;100.00;99688.81;4878513;29;20044;-91
2023/10/11 00:53:10;;;;;;;22.33;17.75;;;;;;;12.41;100.00;99687.38;4847250;29;20124;-92
2023/10/11 00:55:35;;;;;;;23.02;19.13;;;;;;;12.41;100.00;99676.94;4862672;29;20041;-91
2023/10/11 00:58:01;;;;;;;27.77;20.35;;;;;;;12.45;100.00;99678.47;4862440;29;20029;-91
2023/10/11 01:00:26;;;;;;;27.95;21.23;;;;;;;12.39;100.00;99678.81;4862423;29;20069;-91
2023/10/11 01:02:53;;;;;;;29.02;21.48;;;;;;;12.38;100.00;99679.69;4877572;29;20458;-92
2023/10/11 01:05:19;;;;;;;25.20;19.02;;;;;;;12.38;100.00;99671.03;4877896;29;20136;-91
2023/10/11 01:07:45;;;;;;;25.40;19.88;;;;;;;12.33;100.00;99668.66;4862374;29;20048;-92
2023/10/11 01:10:12;;;;;;;24.92;17.70;;;;;;;12.38;100.00;99684.09;4862240;29;20041;-90
2023/10/11 01:12:40;;;;;;;23.40;18.33;;;;;;;12.35;100.00;99672.06;4847029;29;20043;-91
2023/10/11 01:15:11;;;;;;;23.23;18.20;;;;;;;12.40;100.00;99679.66;4862159;29;20552;-91
2023/10/11 01:17:38;;;;;;;22.85;17.13;;;;;;;12.39;100.00;99673.59;4863086;29;20084;-92
2023/10/11 01:20:13;;;;;;;23.02;18.17;;;;;;;12.40;100.00;99670.03;4862069;29;20044;-91
2023/10/11 01:22:42;;;;;;;21.90;17.75;;;;;;;12.41;100.00;99665.66;4878385;29;20044;-91
2023/10/11 01:25:08;;;;;;;25.23;18.67;;;;;;;12.38;100.00;99664.03;4896122;29;20028;-91
2023/10/11 01:27:36;;;;;;;26.10;19.85;;;;;;;12.46;100.00;99674.06;4896075;29;20084;-90
2023/10/11 01:30:07;;;;;;;22.20;18.23;;;;;;;12.39;100.00;99657.91;4896155;29;20408;-92
2023/10/11 01:32:34;;;;;;;27.33;19.75;;;;;;;12.47;100.00;99671.41;4896427;29;20556;-92
2023/10/11 01:35:01;;;;;;;23.90;18.23;;;;;;;12.48;100.00;99660.03;4915161;29;20127;-91
2023/10/11 01:37:28;;;;;;;23.80;19.08;;;;;;;12.41;100.00;99647.38;4900560;29;20032;-90
2023/10/11 01:39:53;;;;;;;19.38;16.77;;;;;;;12.46;100.00;99664.47;4900367;29;20128;-91
2023/10/11 01:42:19;;;;;;;29.50;20.17;;;;;;;12.45;100.00;99672.41;4915976;29;20115;-91
2023/10/11 01:44:44;;;;;;;24.13;19.88;;;;;;;12.31;100.00;99641.81;4881896;29;20043;-90
2023/10/11 01:47:31;;;;;;;20.10;16.77;;;;;;;12.48;100.00;99664.41;4896208;29;20041;-91
2023/10/11 01:49:57;;;;;;;26.08;20.63;;;;;;;12.43;100.00;99663.78;4879728;29;20040;-92
2023/10/11 01:52:25;;;;;;;22.10;17.05;;;;;;;12.44;100.00;99660.28;4880474;29;20047;-91
2023/10/11 01:55:13;;;;;;;26.30;18.70;;;;;;;12.44;100.00;99662.88;4866055;29;20089;-91
2023/10/11 01:57:39;;;;;;;23.75;18.50;;;;;;;12.37;100.00;99644.06;4861841;29;20041;-91
2023/10/11 02:00:13;;;;;;;22.80;18.40;;;;;;;12.51;100.00;99663.38;4861174;29;20068;-91
2023/10/11 02:02:47;;;;;;;22.88;17.45;;;;;;;12.15;100.00;99600.00;4855377;29;20120;-91
2023/10/11 02:05:14;;;;;;;25.45;19.05;;;;;;;12.50;100.00;99659.91;4858186;29;20049;-91
2023/10/11 02:07:40;;;;;;;22.88;17.92;;;;;;;12.49;100.00;99660.84;4839962;29;20049;-91
2023/10/11 02:10:08;;;;;;;26.40;19.00;;;;;;;12.45;100.00;99668.00;4839803;29;20590;-92
2023/10/11 02:12:35;;;;;;;25.33;20.58;;;;;;;12.41;100.00;99660.44;4840034;29;20106;-91
2023/10/11 02:15:07;;;;;;;25.20;19.55;;;;;;;12.32;100.00;99645.25;4839640;29;20034;-91
2023/10/11 02:17:37;;;;;;;24.10;20.15;;;;;;;12.27;100.00;99650.72;4841762;29;20048;-91
2023/10/11 02:20:08;;;;;;;23.85;18.45;;;;;;;12.29;100.00;99659.31;4842623;29;20044;-91
2023/10/11 02:22:33;;;;;;;25.65;20.17;;;;;;;12.20;100.00;99647.59;4842893;29;20124;-91
2023/10/11 02:24:59;;;;;;;24.33;19.33;;;;;;;12.22;100.00;99656.19;4858410;29;20121;-91
2023/10/11 02:27:25;;;;;;;23.10;18.75;;;;;;;12.20;100.00;99652.81;4861209;29;20043;-90
2023/10/11 02:29:51;;;;;;;23.20;18.45;;;;;;;12.03;100.00;99625.91;4861290;29;20051;-91
2023/10/11 02:32:17;;;;;;;26.20;19.42;;;;;;;12.08;100.00;99640.41;4845776;29;20390;-91
2023/10/11 02:34:46;;;;;;;22.63;18.50;;;;;;;12.12;100.00;99654.16;4876857;29;20025;-91
2023/10/11 02:37:12;;;;;;;27.08;21.08;;;;;;;12.11;100.00;99653.31;4827752;29;20458;-91
2023/10/11 02:39:44;;;;;;;31.63;22.83;;;;;;;12.04;100.00;99649.31;4871846;29;20046;-91
2023/10/11 02:42:09;;;;;;;;;;;;;;;12.00;100.00;99645.19;4899526;29;20396;-92
2023/10/11 02:44:39;;;;;;;28.30;20.85;;;;;;;12.00;100.00;99650.41;4916276;29;19915;-91
2023/10/11 02:47:06;;;;;;;29.02;20.20;;;;;;;11.98;100.00;99650.50;4899239;29;20036;-91
2023/10/11 02:49:32;;;;;;;28.33;22.48;;;;;;;11.96;100.00;99654.94;4899480;29;20024;-91
2023/10/11 02:52:05;;;;;;;28.23;20.73;;;;;;;11.94;100.00;99645.53;4895107;29;20036;-90
2023/10/11 02:54:38;;;;;;;27.23;21.50;;;;;;;11.92;100.00;99634.31;4879674;29;20044;-92
2023/10/11 02:57:06;;;;;;;27.38;20.08;;;;;;;11.89;100.00;99643.16;4879506;29;20036;-91
2023/10/11 02:59:33;;;;;;;27.95;21.38;;;;;;;11.78;100.00;99619.34;4879860;29;20119;-91
2023/10/11 03:02:04;;;;;;;28.00;22.63;;;;;;;11.71;100.00;99602.31;4879631;29;20068;-92
2023/10/11 03:04:33;;;;;;;29.40;23.13;;;;;;;11.61;100.00;99601.09;4868520;29;20401;-91
2023/10/11 03:07:00;;;;;;;28.33;23.25;;;;;;;11.70;100.00;99627.56;4899162;29;20037;-92
2023/10/11 03:09:28;;;;;;;29.30;22.63;;;;;;;11.75;100.00;99642.97;4868043;29;20035;-91
2023/10/11 03:11:56;;;;;;;39.08;25.90;;;;;;;11.60;100.00;99618.53;4883407;29;20036;-92
2023/10/11 03:14:25;;;;;;;37.50;25.48;;;;;;;11.69;100.00;99625.88;4883118;29;20028;-91
2023/10/11 03:16:56;;;;;;;36.42;25.33;;;;;;;11.73;100.00;99637.84;4883129;29;20460;-91
2023/10/11 03:19:24;;;;;;;38.90;26.80;;;;;;;11.54;100.00;99610.16;4898624;29;20036;-91
2023/10/11 03:21:56;;;;;;;39.88;25.10;;;;;;;11.70;100.00;99626.72;4883930;29;20552;-91
2023/10/11 03:24:24;;;;;;;;;;;;;;;11.68;100.00;99636.41;4902957;29;20488;-91
2023/10/11 03:26:51;;;;;;;39.67;27.40;;;;;;;11.71;100.00;99633.63;4903030;29;19918;-92
2023/10/11 03:29:21;;;;;;;38.90;26.35;;;;;;;11.58;100.00;99615.13;4902618;29;20452;-91
2023/10/11 03:31:47;;;;;;;37.65;26.75;;;;;;;11.70;100.00;99634.53;4902929;29;20028;-92
2023/10/11 03:34:14;;;;;;;36.65;27.30;;;;;;;11.70;100.00;99631.94;4902732;29;20042;-91
2023/10/11 03:36:51;;;;;;;35.33;24.80;;;;;;;11.70;100.00;99624.94;4902938;29;20047;-91
2023/10/11 03:39:28;;;;;;;37.72;25.38;;;;;;;11.67;100.00;99613.81;4902791;29;20032;-91
2023/10/11 03:42:06;;;;;;;33.53;23.98;;;;;;;11.74;100.00;99618.66;4902382;29;20039;-92
2023/10/11 03:44:35;;;;;;;33.63;25.27;;;;;;;11.68;100.00;99607.69;4901938;29;20115;-92
2023/10/11 03:47:26;;;;;;;35.30;25.08;;;;;;;11.80;100.00;99622.72;4902304;29;20051;-92
2023/10/11 03:49:52;;;;;;;31.23;24.93;;;;;;;11.82;100.00;99620.03;4863770;29;20037;-92
2023/10/11 03:52:30;;;;;;;32.53;24.55;;;;;;;11.80;100.00;99620.13;4848052;29;20269;-92
2023/10/11 03:55:09;;;;;;;34.97;24.75;;;;;;;11.77;100.00;99606.38;4864472;29;20037;-92
2023/10/11 03:57:41;;;;;;;31.88;23.05;;;;;;;11.84;100.00;99611.25;4850330;29;20037;-92
2023/10/11 04:00:25;;;;;;;32.65;24.40;;;;;;;11.84;100.00;99602.53;4849156;29;20060;-92
2023/10/11 04:03:01;;;;;;;32.05;24.13;;;;;;;11.87;100.00;99605.84;4850973;29;20180;-92
2023/10/11 04:05:39;;;;;;;34.42;25.58;;;;;;;11.66;100.00;99571.25;4860894;29;20042;-92
2023/10/11 04:08:08;;;;;;;31.30;24.08;;;;;;;11.68;100.00;99561.59;4806064;29;20384;-92
2023/10/11 04:10:53;;;;;;;35.17;24.98;;;;;;;11.91;100.00;99596.09;4788094;30;20042;-92
2023/10/11 04:13:58;;;;;;;29.52;25.00;;;;;;;11.92;100.00;99592.53;4772713;30;20036;-92
2023/10/11 04:17:04;;;;;;;33.97;25.08;;;;;;;11.77;100.00;99575.91;4734802;30;20447;-92
2023/10/11 04:20:17;;;;;;;34.28;26.00;;;;;;;11.93;100.00;99602.09;4718205;30;20051;-92
2023/10/11 04:22:51;;;;;;;30.85;24.08;;;;;;;11.92;100.00;99592.53;4722244;30;20044;-93
2023/10/11 04:25:22;;;;;;;32.15;23.73;;;;;;;11.89;100.00;99595.34;4734020;30;20045;-92
2023/10/11 04:27:57;;;;;;;33.63;26.52;;;;;;;11.89;100.00;99590.13;4718786;30;20074;-92
2023/10/11 04:30:26;;;;;;;34.90;27.38;;;;;;;11.88;100.00;99588.41;4718931;30;20099;-92
2023/10/11 04:32:57;;;;;;;29.83;24.02;;;;;;;11.88;100.00;99581.44;4733962;30;20049;-92
2023/10/11 04:35:36;;;;;;;32.25;25.67;;;;;;;11.84;100.00;99569.47;4717676;30;20445;-93
2023/10/11 04:38:04;;;;;;;33.30;26.05;;;;;;;11.87;100.00;99578.91;4739906;30;20528;-92
2023/10/11 04:43:04;;;;;;;35.22;27.00;;;;;;;11.84;100.00;99576.44;4769417;30;20039;-92
2023/10/11 04:45:44;;;;;;;32.60;23.73;;;;;;;11.82;100.00;99573.06;4784031;30;20420;-93
2023/10/11 04:48:29;;;;;;;33.10;22.80;;;;;;;11.81;100.00;99573.97;4801338;29;20046;-92
2023/10/11 05:02:22;;;;;;;36.42;28.63;;;;;;;11.71;100.00;99553.59;4790377;29;20198;-92
2023/10/11 05:04:51;;;;;;;43.40;30.20;;;;;;;11.83;100.00;99573.00;4786450;29;20047;-92
2023/10/11 05:07:42;;;;;;;42.03;28.88;;;;;;;11.64;100.00;99540.97;4804433;29;20110;-92
2023/10/11 05:10:42;;;;;;;45.50;30.35;;;;;;;11.72;100.00;99552.66;4768590;30;20491;-91
2023/10/11 05:13:36;;;;;;;47.10;30.38;;;;;;;11.83;100.00;99573.00;4733007;30;20044;-91
2023/10/11 05:16:06;;;;;;;46.13;29.92;;;;;;;11.83;100.00;99574.75;4733499;30;20072;-91
2023/10/11 05:18:37;;;;;;;38.00;27.27;;;;;;;11.76;100.00;99568.19;4718593;30;20056;-92
2023/10/11 05:21:14;;;;;;;38.47;26.77;;;;;;;11.84;100.00;99577.31;4718490;30;20143;-92
2023/10/11 05:24:14;;;;;;;36.47;26.05;;;;;;;11.84;100.00;99572.09;4717665;30;20044;-92
2023/10/11 05:26:38;;;;;;;38.28;26.30;;;;;;;11.85;100.00;99578.16;4732735;30;20476;-92
2023/10/11 05:29:23;;;;;;;37.67;27.10;;;;;;;11.85;100.00;99575.53;4718628;30;20076;-93
2023/10/11 05:34:50;;;;;;;37.53;27.30;;;;;;;11.90;100.00;99570.91;4750260;30;20459;-92
2023/10/11 05:51:09;;;;;;;33.53;25.30;;;;;;;11.94;100.00;99530.69;4784279;29;20564;-92
2023/10/11 05:53:56;;;;;;;30.38;22.33;;;;;;;12.38;100.00;99579.63;4814761;29;20483;-92
2023/10/11 05:56:47;;;;;;;30.13;22.63;;;;;;;12.47;100.00;99584.31;4821848;29;20404;-92
2023/10/11 05:59:14;;;;;;;29.50;22.27;;;;;;;12.59;100.00;99583.66;4803033;29;20456;-92
2023/10/11 06:01:44;;;;;;;27.90;21.67;;;;;;;12.70;100.00;99586.50;4801099;29;20453;-92
2023/10/11 06:04:14;;;;;;;31.38;21.25;;;;;;;12.76;100.00;99577.47;4789560;29;20125;-92
2023/10/11 06:06:45;;;;;;;25.75;19.95;;;;;;;12.85;100.00;99569.13;4788749;29;20070;-92
2023/10/11 06:09:18;;;;;;;28.23;20.25;;;;;;;13.01;100.00;99573.47;4767277;30;20477;-93
2023/10/11 06:12:10;;;;;;;30.15;20.85;;;;;;;13.03;100.00;99562.00;4763765;30;20043;-93
2023/10/11 06:14:40;;;;;;;25.23;19.15;;;;;;;13.06;100.00;99547.88;4717511;30;20153;-93
2023/10/11 06:17:49;;;;;;;24.45;19.85;;;;;;;13.20;100.00;99558.41;4715428;30;20047;-92
2023/10/11 06:20:39;;;;;;;23.95;18.20;;;;;;;13.32;100.00;99568.16;4714320;30;20044;-92
2023/10/11 06:24:04;;;;;;;20.42;16.80;;;;;;;13.36;100.00;99555.75;4679578;30;20042;-92
2023/10/11 06:30:17;;;;;;;23.17;18.08;;;;;;;13.66;100.00;99550.44;4595881;31;20040;-91
2023/10/11 06:33:23;;;;;;;21.52;18.52;;;;;;;13.91;100.00;99573.34;4564799;31;20048;-92
2023/10/11 06:35:53;;;;;;;25.15;18.58;;;;;;;13.86;100.00;99542.22;4559808;31;20471;-92
2023/10/11 06:38:41;;;;;;;26.40;17.90;;;;;;;14.03;100.00;99549.03;4559541;31;20236;-92
2023/10/11 06:45:49;;;;;;;18.90;15.25;;;;;;;14.66;100.00;99571.22;4562331;31;20051;-92
2023/10/11 06:49:14;;;;;;;27.27;16.55;;;;;;;14.94;100.00;99567.66;4497777;31;20050;-92
2023/10/11 06:52:48;;;;;;;21.75;16.60;;;;;;;15.20;100.00;99565.94;4491556;31;20563;-92
2023/10/11 06:56:38;;;;;;;22.48;15.18;;;;;;;15.45;100.00;99575.63;4513855;31;20047;-92
2023/10/11 07:04:24;;;;;;;15.40;12.90;;;;;;;15.88;100.00;99567.44;4462118;31;20070;-92
2023/10/11 07:08:02;;;;;;;18.08;12.90;;;;;;;15.79;100.00;99526.91;4467140;32;20075;-92
2023/10/11 07:11:50;;;;;;;18.88;13.20;;;;;;;15.99;100.00;99527.28;4451028;32;20049;-92
2023/10/11 07:15:15;;;;;;;16.67;13.32;;;;;;;16.35;100.00;99543.06;4435344;32;20059;-92
2023/10/11 07:18:59;;;;;;;16.52;12.70;;;;;;;16.63;100.00;99546.31;4431842;32;20072;-92
2023/10/11 07:22:34;;;;;;;16.90;13.07;;;;;;;16.54;100.00;99495.22;4408318;32;20799;-93
2023/10/11 07:29:35;;;;;;;18.70;14.07;;;;;;;17.25;100.00;99547.88;4414064;32;20080;-92
2023/10/11 07:33:12;;;;;;;22.60;14.13;;;;;;;17.29;100.00;99552.78;4394746;32;20054;-92
2023/10/11 07:36:39;;;;;;;18.65;13.55;;;;;;;17.02;100.00;99503.06;4390566;32;20619;-91
2023/10/11 07:40:13;;;;;;;23.20;16.17;;;;;;;16.96;100.00;99466.72;4389780;32;20053;-92
2023/10/11 07:43:37;;;;;;;18.88;15.57;;;;;;;17.53;100.00;99536.06;4440601;32;20083;-92
2023/10/11 07:47:15;;;;;;;21.73;16.52;;;;;;;17.21;100.00;99470.94;4413514;32;20413;-93
2023/10/11 07:50:42;;;;;;;21.15;15.43;;;;;;;17.67;100.00;99544.56;4433340;32;20045;-93
2023/10/11 07:58:09;;;;;;;17.23;10.70;;;;;;;17.36;100.00;99472.41;4500225;31;20054;-92
2023/10/11 08:01:45;;;;;;;16.75;11.80;;;;;;;17.93;100.00;99541.72;4453862;32;20083;-91
2023/10/11 08:05:05;;;;;;;15.27;12.10;;;;;;;17.90;100.00;99523.50;4476335;32;20143;-92
2023/10/11 08:08:32;;;;;;;17.60;11.48;;;;;;;17.77;100.00;99484.13;4470534;32;20047;-91
2023/10/11 08:11:59;;;;;;;16.05;10.77;;;;;;;18.23;100.00;99527.06;4406476;32;20371;-92
2023/10/11 08:15:06;;;;;;;15.88;11.40;;;;;;;18.47;100.00;99548.84;4418411;32;20567;-92
2023/10/11 08:18:16;;;;;;;17.40;10.98;;;;;;;18.63;100.00;99538.72;4394290;32;20493;-92
2023/10/11 08:21:58;;;;;;;14.48;10.35;;;;;;;18.95;100.00;99545.78;4347518;32;20059;-91
2023/10/11 08:25:28;;;;;;;16.02;9.35;;;;;;;19.00;100.00;99519.84;4334534;32;20048;-93
2023/10/11 08:28:59;;;;;;;17.55;10.50;;;;;;;19.21;100.00;99525.13;4381601;32;20529;-93
2023/10/11 08:32:32;;;;;;;18.85;9.38;;;;;;;19.30;100.00;99527.00;4406397;32;20053;-92
2023/10/11 08:36:19;;;;;;;12.80;8.63;;;;;;;19.24;100.00;99524.88;4369774;32;20442;-92
2023/10/11 08:39:54;;;;;;;13.52;8.68;;;;;;;19.18;100.00;99531.53;4348285;32;20123;-91
2023/10/11 08:43:10;;;;;;;12.73;9.38;;;;;;;19.16;100.00;99532.59;4359583;32;20500;-93
2023/10/11 08:46:20;;;;;;;18.67;10.57;;;;;;;18.74;100.00;99493.00;4316846;32;20521;-93
2023/10/11 08:49:33;;;;;;;13.52;9.35;;;;;;;18.80;100.00;99502.22;4277515;32;20493;-93
2023/10/11 08:53:10;;;;;;;11.73;9.18;;;;;;;18.97;100.00;99524.56;4333462;32;20051;-92
2023/10/11 08:56:42;;;;;;;12.32;8.90;;;;;;;18.84;100.00;99506.28;4381385;32;20131;-91
2023/10/11 08:59:44;;;;;;;14.43;9.35;;;;;;;18.88;100.00;99518.25;4399843;32;20061;-91
2023/10/11 09:02:55;;;;;;;12.18;8.70;;;;;;;18.74;100.00;99511.47;4321526;32;20060;-93
2023/10/11 09:06:25;;;;;;;14.10;8.27;;;;;;;18.82;100.00;99516.94;4355046;32;20140;-93
2023/10/11 09:09:54;;;;;;;12.25;7.88;;;;;;;18.84;100.00;99516.84;4327781;33;20052;-92
2023/10/11 09:13:23;;;;;;;13.98;8.73;;;;;;;18.76;100.00;99498.16;4346535;33;20134;-92
2023/10/11 09:20:44;;;;;;;15.25;8.57;;;;;;;18.95;100.00;99512.31;4356476;32;20614;-93
2023/10/11 09:24:38;;;;;;;13.55;7.80;;;;;;;18.73;100.00;99459.66;4360683;32;20047;-93
2023/10/11 09:42:22;;;;;;;12.98;8.57;;;;;;;19.02;100.00;99461.66;4350816;32;20135;-93
2023/10/11 09:45:53;;;;;;;13.02;7.18;;;;;;;19.28;100.00;99497.25;4321393;32;20049;-93
2023/10/11 09:49:02;;;;;;;11.65;7.85;;;;;;;19.47;100.00;99517.66;4369505;32;20063;-93
2023/10/11 09:52:45;;;;;;;11.18;6.80;;;;;;;19.33;100.00;99486.28;4387684;32;20050;-92
2023/10/11 09:56:15;;;;;;;10.65;7.15;;;;;;;19.65;100.00;99523.19;4364034;32;20137;-93
2023/10/11 09:59:38;;;;;;;12.18;7.47;;;;;;;19.66;100.00;99525.69;4441418;32;20056;-92
2023/10/11 10:02:54;;;;;;;9.82;7.00;;;;;;;19.57;100.00;99512.41;4479078;32;20522;-92
2023/10/11 10:06:37;;;;;;;8.95;7.10;;;;;;;19.71;100.00;99533.22;4492857;31;20067;-92
2023/10/11 10:10:13;;;;;;;12.73;7.43;;;;;;;19.56;100.00;99498.38;4498327;31;20062;-92
2023/10/11 10:13:25;;;;;;;12.02;7.95;;;;;;;19.74;100.00;99513.63;4461114;32;20066;-93
2023/10/11 10:16:35;;;;;;;11.07;7.43;;;;;;;19.84;100.00;99517.13;4437272;32;20062;-92
2023/10/11 10:20:18;;;;;;;7.60;6.40;;;;;;;19.99;100.00;99528.19;4382806;32;20109;-92
2023/10/11 10:23:57;;;;;;;11.48;7.10;;;;;;;20.08;100.00;99545.88;4384656;32;20089;-92
2023/10/11 10:31:17;;;;;;;15.20;7.47;;;;;;;20.07;100.00;99531.00;4405949;32;20085;-92
2023/10/11 10:34:45;;;;;;;9.60;6.80;;;;;;;20.04;100.00;99529.44;4405191;32;20133;-93
2023/10/11 10:38:03;;;;;;;9.93;7.53;;;;;;;20.03;100.00;99529.59;4418545;32;20049;-93
2023/10/11 10:41:55;;;;;;;10.90;6.93;;;;;;;19.95;100.00;99514.41;4401590;32;20128;-92
2023/10/11 10:45:43;;;;;;;12.38;7.70;;;;;;;20.08;100.00;99522.09;4406599;32;20193;-92
2023/10/11 10:56:10;;;;;;;11.05;6.35;;;;;;;20.40;95.45;99520.06;4525163;27;16521211;-92
2023/10/11 11:03:48;;;;;;;10.55;6.60;;;;;;;20.66;92.68;99508.97;4970338;28;20149;-96
2023/10/11 11:07:22;;;;;;;13.32;6.70;;;;;;;20.70;91.39;99494.50;4949420;29;20047;-93
2023/10/11 11:10:12;;;;;;;11.63;7.05;;;;;;;20.91;89.57;99505.75;4914253;29;20052;-94
2023/10/11 11:12:44;;;;;;;10.30;6.57;;;;;;;20.93;89.14;99489.72;4876512;29;20032;-93
2023/10/11 11:16:09;;;;;;;12.52;6.80;;;;;;;20.59;89.82;99413.41;4892572;29;20036;-93
2023/10/11 11:19:25;;;;;;;9.88;7.32;;;;;;;20.81;90.40;99440.56;4854727;29;20103;-93
2023/10/11 11:22:12;;;;;;;11.93;7.15;;;;;;;21.02;89.90;99466.84;4818366;29;20034;-93
2023/10/11 11:25:38;;;;;;;11.40;6.15;;;;;;;20.58;90.12;99425.00;4800058;29;20062;-93
2023/10/11 11:28:45;;;;;;;11.80;6.57;;;;;;;21.00;88.78;99482.88;4729053;30;20103;-92
2023/10/11 11:31:53;;;;;;;11.45;6.75;;;;;;;20.95;89.51;99469.25;4708347;30;20038;-93
2023/10/11 11:35:04;;;;;;;10.85;6.47;;;;;;;20.89;88.66;99461.84;4710188;30;20103;-93
2023/10/11 11:38:05;;;;;;;13.15;6.93;;;;;;;20.89;88.28;99467.16;4720515;30;20041;-92
2023/10/11 11:40:36;;;;;;;11.15;6.68;;;;;;;20.41;89.06;99389.47;4711226;30;20136;-93
2023/10/11 11:44:03;;;;;;;11.25;6.38;;;;;;;20.86;90.51;99462.16;4695797;30;20036;-93
2023/10/11 11:47:12;;;;;;;14.52;6.72;;;;;;;20.76;90.71;99448.09;4678991;30;20424;-91
2023/10/11 11:50:39;;;;;;;12.93;6.90;;;;;;;20.84;90.39;99454.34;4642556;30;20102;-93
2023/10/11 11:53:27;;;;;;;14.98;7.38;;;;;;;20.80;90.56;99452.13;4588985;31;20479;-93
2023/10/11 11:56:00;;;;;;;11.15;6.97;;;;;;;20.80;89.99;99452.97;4588022;31;20080;-93
2023/10/11 11:58:49;;;;;;;11.80;6.43;;;;;;;20.68;89.61;99433.75;4575832;31;20480;-93
2023/10/11 12:01:36;;;;;;;11.13;6.72;;;;;;;20.76;90.60;99434.84;4592329;31;20511;-93
2023/10/11 12:04:32;;;;;;;10.75;7.10;;;;;;;20.79;91.14;99447.81;4608646;31;20455;-93
2023/10/11 12:07:24;;;;;;;10.23;6.30;;;;;;;20.77;91.05;99444.47;4631141;30;20053;-92
2023/10/11 12:10:32;;;;;;;9.80;6.80;;;;;;;20.76;91.26;99438.34;4645631;30;20161;-93
2023/10/11 12:13:25;;;;;;;10.45;6.07;;;;;;;20.69;91.47;99431.97;4662821;30;20043;-93
2023/10/11 12:16:14;;;;;;;12.52;6.68;;;;;;;20.33;91.29;99381.41;4627898;30;20051;-94
2023/10/11 12:18:44;;;;;;;12.60;7.25;;;;;;;20.74;90.90;99436.81;4638238;30;20054;-93
2023/10/11 12:21:48;;;;;;;10.18;6.13;;;;;;;20.57;91.51;99417.19;4638108;30;20039;-93
2023/10/11 12:24:58;;;;;;;12.30;6.03;;;;;;;20.67;90.89;99428.59;4655713;30;20039;-93
2023/10/11 12:27:43;;;;;;;10.95;6.03;;;;;;;20.63;91.46;99427.22;4681071;30;20045;-93
2023/10/11 12:30:54;;;;;;;14.57;7.07;;;;;;;20.59;90.84;99433.75;4682262;30;20033;-94
2023/10/11 12:33:43;;;;;;;11.02;6.40;;;;;;;20.59;90.53;99442.53;4653931;30;20221;-93
2023/10/11 12:36:52;;;;;;;9.85;6.40;;;;;;;20.35;90.52;99411.19;4670032;30;20131;-93
2023/10/11 12:39:24;;;;;;;11.77;6.80;;;;;;;20.54;90.49;99431.53;4664366;30;20447;-93
2023/10/11 12:41:55;;;;;;;8.95;6.32;;;;;;;20.52;91.05;99433.50;4664108;30;20046;-91
2023/10/11 12:44:23;;;;;;;12.35;6.50;;;;;;;20.44;90.82;99426.22;4654646;30;20046;-93
2023/10/11 12:47:31;;;;;;;10.63;6.38;;;;;;;20.48;92.18;99431.22;4711001;30;20392;-93
2023/10/11 12:50:00;;;;;;;13.82;6.30;;;;;;;20.33;92.24;99422.88;4697982;30;20042;-93
2023/10/11 12:52:35;;;;;;;12.73;6.38;;;;;;;20.44;91.62;99433.34;4698276;30;20049;-93
2023/10/11 12:55:22;;;;;;;9.95;6.63;;;;;;;20.43;92.11;99421.06;4676777;30;20496;-93
2023/10/11 12:57:53;;;;;;;11.30;6.22;;;;;;;20.48;92.28;99420.63;4644525;30;20435;-93
2023/10/11 13:01:05;;;;;;;8.02;5.60;;;;;;;20.48;92.16;99426.81;4695194;30;20069;-93
2023/10/11 13:03:37;;;;;;;10.50;6.25;;;;;;;20.50;91.66;99424.03;4681229;30;20070;-93
2023/10/11 13:06:09;;;;;;;11.70;6.25;;;;;;;20.53;92.02;99429.88;4674788;30;20467;-93
2023/10/11 13:08:59;;;;;;;10.50;5.97;;;;;;;20.52;92.14;99419.41;4713682;30;20073;-92
2023/10/11 13:11:31;;;;;;;10.18;6.55;;;;;;;20.59;91.88;99418.72;4745056;30;20054;-93
2023/10/11 13:14:20;;;;;;;14.35;6.75;;;;;;;20.63;91.00;99411.34;4732923;30;20127;-93
2023/10/11 13:17:15;;;;;;;9.77;6.32;;;;;;;20.51;91.71;99378.06;4726290;30;20048;-93
2023/10/11 13:19:44;;;;;;;10.32;6.43;;;;;;;20.70;92.14;99403.69;4700653;30;20418;-92
2023/10/11 13:22:50;;;;;;;10.45;6.25;;;;;;;20.71;92.15;99392.94;4715681;30;20053;-93
2023/10/11 13:25:38;;;;;;;10.73;6.25;;;;;;;20.71;91.92;99389.47;4681429;30;20041;-93
2023/10/11 13:28:26;;;;;;;9.85;6.45;;;;;;;20.73;92.39;99384.84;4663659;30;20050;-93
2023/10/11 13:31:14;;;;;;;11.38;6.22;;;;;;;20.34;92.30;99331.97;4644560;30;20065;-93
2023/10/11 13:33:44;;;;;;;11.45;6.80;;;;;;;20.76;91.70;99385.41;4663451;30;20122;-92
2023/10/11 13:36:33;;;;;;;7.90;5.72;;;;;;;20.76;92.23;99387.22;4717766;30;20049;-93
2023/10/11 13:39:25;;;;;;;9.18;6.63;;;;;;;20.64;91.65;99374.13;4686261;30;20531;-92
2023/10/11 13:42:16;;;;;;;9.93;6.47;;;;;;;20.66;92.06;99380.13;4715232;30;20061;-93
2023/10/11 13:45:08;;;;;;;11.82;6.80;;;;;;;20.67;92.31;99380.97;4702296;30;20045;-93
2023/10/11 13:47:57;;;;;;;12.60;6.57;;;;;;;20.55;92.92;99361.75;4678636;30;20137;-92
2023/10/11 13:51:06;;;;;;;12.77;6.80;;;;;;;20.56;93.18;99362.59;4681718;30;20076;-93
2023/10/11 13:53:53;;;;;;;13.93;6.18;;;;;;;20.67;93.01;99379.16;4714604;30;20395;-93
2023/10/11 13:56:31;;;;;;;14.88;6.82;;;;;;;20.68;93.20;99383.47;4711868;30;20095;-91
2023/10/11 13:58:59;;;;;;;13.35;7.03;;;;;;;20.71;93.40;99384.16;4714660;30;20072;-93
2023/10/11 14:07:36;;;;;;;10.68;6.63;;;;;;;20.69;92.55;99371.09;4701873;30;20140;-93
2023/10/11 14:12:56;;;;;;;11.55;6.93;;;;;;;20.62;91.76;99373.47;4751212;30;20175;-93
2023/10/11 14:15:24;;;;;;;12.90;6.35;;;;;;;20.41;91.76;99330.44;4749760;30;20054;-93
2023/10/11 14:17:54;;;;;;;11.02;6.80;;;;;;;20.64;92.27;99362.72;4749652;30;20047;-93
2023/10/11 14:20:30;;;;;;;10.30;5.85;;;;;;;20.62;92.43;99360.22;4752782;30;20036;-93
2023/10/11 14:22:58;;;;;;;13.85;6.55;;;;;;;20.61;91.99;99371.78;4806441;29;20414;-93
2023/10/11 14:25:24;;;;;;;15.65;7.13;;;;;;;20.60;91.79;99361.34;4857940;29;20439;-93
2023/10/11 14:27:52;;;;;;;9.23;6.40;;;;;;;20.57;92.11;99361.63;4857367;29;20438;-93
2023/10/11 14:30:40;;;;;;;11.50;6.97;;;;;;;20.33;91.83;99322.38;4858109;29;20048;-93